Aérodrome :
LOGIN :

S'inscrire | Disclaimer

   EN    FR    IT 

 










Légende :    VFR   VFR Marginal   IFR   IFR Intensif   IFR Très Intensif
Visi : 
Plafond : 
>= 8 km
>= 3000ft
5 à 8 km
1000 à 3000 ft
1500m à 5 km
500 à 1000 ft
800 à 1500m
200 à 500 ft
< 800m
< 200 ft
Symboles :   Orages  Brouillard  Fortes neiges  Fortes précipitations  Vent > 20 kt
SIGMETs :   Divers  Orages  Givrage  Turbulence  Onde Orograph.  Cendres Volcan.






- Altitude de l'aérodrome : 18 ft
- Code IATA : AJA


LFKJ - Ajaccio

DERNIER METAR :
  • 271630Z AUTO 28003KT 250V320 CAVOK 25/11 Q1016 NOSIG

METARs EXPIRÉS :
  • 271600Z AUTO 27006KT CAVOK 23/15 Q1017 NOSIG
  • 271530Z AUTO 22003KT 160V250 CAVOK 23/16 Q1017 NOSIG
  • 271500Z AUTO 17005KT 130V210 CAVOK 24/14 Q1017 TEMPO SCT060CB
  • 271430Z AUTO 20007KT CAVOK 23/15 Q1018 TEMPO SCT060CB
  • 271400Z AUTO 20008KT CAVOK 24/17 Q1018 TEMPO SCT060CB
  • 271330Z AUTO 20009KT CAVOK 24/17 Q1018 TEMPO SCT060CB
  • 271300Z AUTO 19008KT 160V230 CAVOK 25/17 Q1018 TEMPO SCT060CB
  • 271230Z AUTO 23011KT CAVOK 24/15 Q1018 TEMPO SCT060CB
  • 271200Z AUTO 24012KT CAVOK 24/16 Q1018 TEMPO SCT060CB
  • 271130Z AUTO 23010KT CAVOK 24/16 Q1018 TEMPO SCT060CB

TAF TAF LFKJ
Valide du 27 à 15h jusqu'au 28 à 15h UTC


271400Z 2715/2815 22008KT CAVOK
TEMPO 2715/2716 SCT060CB
BECMG 2718/2720 06006KT
TEMPO 2801/2807 BKN014
BECMG 2808/2810 23010KT
ATIS : +33 4 95 23 59 85



MET'MAP, la Météo Aéronautique d'un coup d'oeil ! - Copyright ORBIFLY Décembre 2007 - Disclaimer

ORBIFLY MET'MAP TEAM :

Programmation & Développement : Alexandra Zaïnal
Sur une idée originale de : Baudouin d'Aumeries
Soutien technique & logistique : Manuel Goepfert
Assistance : Marc-Olivier Méhu




SOURCES & CREDITS :

   NOAA